Time;durP1;ratioP1;P1;durP2;ratioP2;P2;SDS_P1;SDS_P2;PMS_P1;PMS_P2;Temp;Humidity;BMP_temperature;BMP_pressure;BME280_temperature;BME280_humidity;BME280_pressure;Samples;Min_cycle;Max_cycle;Signal;HPM_P1;HPM_P2
2022/12/01 00:01:22;;;;;;;39.30;22.02;;;5.90;79.60;;;;;;5082219;28;20204;-70
2022/12/01 00:03:50;;;;;;;43.42;22.90;;;5.80;79.50;;;;;;5080250;28;20223;-70
2022/12/01 00:06:20;;;;;;;37.08;20.73;;;5.80;79.60;;;;;;5079338;28;20288;-71
2022/12/01 00:11:38;;;;;;;43.58;21.40;;;5.70;79.50;;;;;;5075438;28;20206;-73
2022/12/01 00:14:06;;;;;;;42.65;21.70;;;5.70;79.60;;;;;;5076454;28;20268;-73
2022/12/01 00:16:35;;;;;;;38.30;20.13;;;5.70;79.70;;;;;;5076675;28;20207;-71
2022/12/01 00:19:04;;;;;;;48.17;23.25;;;5.70;79.70;;;;;;5080955;28;21663;-73
2022/12/01 00:21:32;;;;;;;42.63;21.60;;;5.70;79.80;;;;;;5078578;28;20212;-72
2022/12/01 00:23:59;;;;;;;38.92;22.08;;;5.70;79.80;;;;;;5080911;28;20226;-71
2022/12/01 00:26:28;;;;;;;34.88;19.65;;;5.70;79.80;;;;;;5073362;28;20207;-73
2022/12/01 00:28:59;;;;;;;43.72;22.15;;;5.70;79.50;;;;;;5074340;28;20283;-72
2022/12/01 00:31:28;;;;;;;37.15;19.65;;;5.70;79.60;;;;;;5073625;28;20571;-70
2022/12/01 00:33:56;;;;;;;39.72;22.17;;;5.60;79.40;;;;;;5083685;28;20266;-73
2022/12/01 00:36:24;;;;;;;44.25;24.20;;;5.60;79.60;;;;;;5079886;28;20207;-72
2022/12/01 00:38:53;;;;;;;45.25;23.27;;;5.60;79.70;;;;;;5077893;28;20214;-72
2022/12/01 00:41:22;;;;;;;40.92;23.10;;;5.70;79.80;;;;;;5078662;28;20218;-72
2022/12/01 00:43:50;;;;;;;42.67;22.00;;;5.70;79.80;;;;;;5082164;28;20230;-72
2022/12/01 00:46:21;;;;;;;41.63;22.55;;;5.70;79.70;;;;;;5080602;28;20256;-72
2022/12/01 00:48:49;;;;;;;44.72;23.63;;;5.70;79.50;;;;;;5073262;28;20216;-71
2022/12/01 00:51:17;;;;;;;37.78;21.52;;;5.70;79.50;;;;;;5076995;28;20739;-71
2022/12/01 00:53:45;;;;;;;41.25;22.30;;;5.70;79.80;;;;;;5078262;28;20710;-71
2022/12/01 00:56:13;;;;;;;42.47;23.60;;;5.70;79.60;;;;;;5073026;28;20221;-69
2022/12/01 00:58:41;;;;;;;41.25;22.55;;;5.70;79.50;;;;;;5077348;28;22299;-71
2022/12/01 01:01:09;;;;;;;47.95;23.92;;;5.70;79.50;;;;;;5080898;28;20212;-71
2022/12/01 01:03:39;;;;;;;41.42;20.98;;;5.70;79.60;;;;;;5077201;28;20216;-72
2022/12/01 01:06:10;;;;;;;47.25;22.20;;;5.70;79.60;;;;;;5070879;28;20249;-72
2022/12/01 01:08:38;;;;;;;44.22;23.55;;;5.70;79.60;;;;;;5076082;28;21002;-71
2022/12/01 01:11:07;;;;;;;43.53;20.70;;;5.80;79.80;;;;;;5076787;28;20207;-72
2022/12/01 01:13:37;;;;;;;53.25;25.63;;;5.80;79.60;;;;;;5074000;28;20224;-73
2022/12/01 01:16:08;;;;;;;45.63;25.13;;;5.80;79.60;;;;;;5073870;28;20196;-72
2022/12/01 01:18:36;;;;;;;43.00;22.73;;;5.80;79.60;;;;;;5075050;28;20199;-73
2022/12/01 01:21:07;;;;;;;40.35;21.13;;;5.80;79.40;;;;;;5071380;28;20199;-71
2022/12/01 01:23:38;;;;;;;44.60;24.17;;;5.80;79.30;;;;;;5077211;28;20215;-69
2022/12/01 01:26:08;;;;;;;40.40;21.40;;;5.70;79.30;;;;;;5078912;28;20199;-74
2022/12/01 01:28:36;;;;;;;57.30;28.95;;;5.70;79.50;;;;;;5080513;28;20289;-73
2022/12/01 01:31:06;;;;;;;43.35;23.02;;;5.70;79.50;;;;;;5077196;28;20210;-72
2022/12/01 01:33:34;;;;;;;40.58;22.70;;;5.70;79.50;;;;;;5074439;28;20230;-72
2022/12/01 01:36:05;;;;;;;39.78;20.40;;;5.70;79.40;;;;;;5075969;28;20210;-72
2022/12/01 01:38:34;;;;;;;48.00;24.63;;;5.60;79.30;;;;;;5078479;28;20214;-71
2022/12/01 01:41:03;;;;;;;60.70;30.05;;;5.70;79.60;;;;;;5078355;28;20206;-72
2022/12/01 01:43:41;;;;;;;40.00;22.73;;;5.70;79.60;;;;;;5074117;28;20751;-72
2022/12/01 01:46:12;;;;;;;37.58;21.17;;;5.80;79.50;;;;;;5075958;28;20669;-73
2022/12/01 01:48:41;;;;;;;34.55;18.77;;;5.80;79.40;;;;;;5073203;28;20751;-71
2022/12/01 01:51:13;;;;;;;57.97;30.48;;;5.80;79.20;;;;;;5071801;28;20204;-71
2022/12/01 01:53:42;;;;;;;34.78;19.45;;;5.80;79.20;;;;;;5076931;28;20224;-71
2022/12/01 01:56:11;;;;;;;39.75;22.60;;;5.70;79.20;;;;;;5073792;28;20612;-71
2022/12/01 01:58:39;;;;;;;37.45;21.50;;;5.80;79.20;;;;;;5079486;28;20203;-72
2022/12/01 02:01:08;;;;;;;34.28;18.48;;;5.80;79.20;;;;;;5079397;28;20199;-71
2022/12/01 02:03:37;;;;;;;41.97;21.33;;;5.80;79.20;;;;;;5075138;28;20235;-71
2022/12/01 02:06:08;;;;;;;34.55;20.35;;;5.80;79.10;;;;;;5076234;28;20207;-71
2022/12/01 02:08:37;;;;;;;40.25;20.92;;;5.80;79.10;;;;;;5073847;28;20208;-71
2022/12/01 02:11:21;;;;;;;43.95;22.90;;;5.80;79.10;;;;;;5075554;28;20208;-72
2022/12/01 02:13:59;;;;;;;36.63;19.88;;;5.80;79.10;;;;;;5074650;28;20235;-71
2022/12/01 02:16:38;;;;;;;37.55;20.77;;;5.80;78.90;;;;;;5074123;28;20265;-72
2022/12/01 02:19:25;;;;;;;39.08;20.98;;;5.70;78.80;;;;;;5073677;28;20206;-72
2022/12/01 02:22:03;;;;;;;34.58;18.83;;;5.70;78.90;;;;;;5076511;28;20198;-72
2022/12/01 02:25:03;;;;;;;37.78;19.55;;;5.60;79.00;;;;;;5075336;28;20308;-71
2022/12/01 02:27:46;;;;;;;37.53;19.92;;;5.60;79.00;;;;;;5077920;28;20207;-73
2022/12/01 02:30:17;;;;;;;38.90;20.58;;;5.60;79.00;;;;;;5079546;28;20215;-71
2022/12/01 02:33:01;;;;;;;43.30;23.77;;;5.60;79.10;;;;;;5080366;28;20937;-70
2022/12/01 02:35:36;;;;;;;42.05;20.48;;;5.60;79.20;;;;;;5078761;28;20215;-73
2022/12/01 02:38:11;;;;;;;34.80;17.55;;;5.60;79.00;;;;;;5080882;28;20209;-72
2022/12/01 02:40:43;;;;;;;32.92;18.48;;;5.50;78.90;;;;;;5080263;28;20203;-72
2022/12/01 02:43:17;;;;;;;36.67;18.85;;;5.50;79.00;;;;;;5072260;28;20621;-70
2022/12/01 02:45:48;;;;;;;39.40;19.48;;;5.50;79.10;;;;;;5075584;28;20565;-72
2022/12/01 02:48:22;;;;;;;36.15;18.52;;;5.50;78.90;;;;;;5079167;28;20633;-72
2022/12/01 02:50:53;;;;;;;31.75;17.48;;;5.50;78.90;;;;;;5084767;28;20205;-72
2022/12/01 02:53:21;;;;;;;38.53;18.52;;;5.50;79.00;;;;;;5078091;28;20231;-71
2022/12/01 02:55:52;;;;;;;30.67;17.88;;;5.50;79.00;;;;;;5080001;28;20227;-72
2022/12/01 02:58:20;;;;;;;37.15;18.77;;;5.60;79.10;;;;;;5073987;28;20203;-72
2022/12/01 03:01:16;;;;;;;33.83;17.95;;;5.60;79.00;;;;;;5082638;28;20198;-73
2022/12/01 03:04:18;;;;;;;30.70;17.27;;;5.60;79.00;;;;;;5093812;28;20286;-73
2022/12/01 03:06:55;;;;;;;30.52;15.98;;;5.60;78.70;;;;;;5065579;28;20218;-72
2022/12/01 03:09:33;;;;;;;32.10;17.33;;;5.60;78.60;;;;;;5078249;28;20231;-71
2022/12/01 03:12:13;;;;;;;30.08;17.35;;;5.50;78.50;;;;;;5069637;28;20668;-71
2022/12/01 03:14:45;;;;;;;26.85;16.33;;;5.50;78.60;;;;;;5080528;28;20696;-72
2022/12/01 03:17:17;;;;;;;36.97;17.15;;;5.50;78.40;;;;;;5083864;28;20214;-72
2022/12/01 03:19:53;;;;;;;26.55;14.63;;;5.50;78.30;;;;;;5085773;28;20685;-71
2022/12/01 03:22:26;;;;;;;38.85;19.58;;;5.40;78.30;;;;;;5076788;28;20226;-71
2022/12/01 03:24:57;;;;;;;42.13;20.30;;;5.30;78.30;;;;;;5080999;28;20207;-71
2022/12/01 03:27:31;;;;;;;38.63;19.90;;;5.30;78.40;;;;;;5078961;28;20191;-71
2022/12/01 03:30:02;;;;;;;37.65;18.05;;;5.30;78.40;;;;;;5084465;28;20195;-71
2022/12/01 03:32:37;;;;;;;29.85;16.50;;;5.30;78.30;;;;;;5073573;28;20227;-71
2022/12/01 03:35:13;;;;;;;38.72;19.20;;;5.30;78.20;;;;;;5079064;28;20264;-71
2022/12/01 03:37:45;;;;;;;37.00;20.10;;;5.30;78.20;;;;;;5079951;28;20219;-72
2022/12/01 03:40:18;;;;;;;33.70;18.42;;;5.30;77.70;;;;;;5083632;28;20206;-71
2022/12/01 03:42:50;;;;;;;29.38;15.80;;;5.20;77.80;;;;;;5078499;28;20215;-72
2022/12/01 03:45:24;;;;;;;28.88;16.30;;;5.20;77.80;;;;;;5078496;28;20207;-72
2022/12/01 03:47:53;;;;;;;36.72;18.27;;;5.20;77.90;;;;;;5077169;28;20199;-72
2022/12/01 03:50:31;;;;;;;40.72;21.00;;;5.20;77.90;;;;;;5079201;28;20803;-72
2022/12/01 03:53:07;;;;;;;29.27;17.10;;;5.20;78.00;;;;;;5083606;28;20218;-70
2022/12/01 03:55:40;;;;;;;39.83;19.50;;;5.20;78.00;;;;;;5077712;28;20224;-71
2022/12/01 03:58:12;;;;;;;40.20;19.65;;;5.20;78.00;;;;;;5075885;28;20604;-72
2022/12/01 04:00:42;;;;;;;32.33;18.25;;;5.20;77.90;;;;;;5078388;28;20208;-71
2022/12/01 04:03:17;;;;;;;28.05;17.00;;;5.30;77.90;;;;;;5078937;28;20216;-72
2022/12/01 04:05:47;;;;;;;32.15;18.13;;;5.30;78.00;;;;;;5078044;28;20274;-72
2022/12/01 04:08:15;;;;;;;36.85;17.92;;;5.30;77.80;;;;;;5073183;28;20195;-71
2022/12/01 04:10:43;;;;;;;35.42;18.55;;;5.30;77.90;;;;;;5077889;28;20227;-71
2022/12/01 04:13:15;;;;;;;35.67;19.42;;;5.30;77.50;;;;;;5075957;28;20246;-70
2022/12/01 04:15:43;;;;;;;35.92;19.73;;;5.30;77.40;;;;;;5083441;28;20211;-72
2022/12/01 04:18:11;;;;;;;31.67;16.77;;;5.30;77.50;;;;;;5075884;28;20195;-70
2022/12/01 04:20:42;;;;;;;33.70;18.55;;;5.30;77.70;;;;;;5081987;28;20728;-70
2022/12/01 04:23:58;;;;;;;34.97;18.73;;;5.30;77.40;;;;;;5081102;28;20338;-70
2022/12/01 04:26:01;;;;;;;46.67;23.20;;;5.30;77.50;;;;;;5078868;28;20283;-72
2022/12/01 04:28:29;;;;;;;45.50;22.35;;;5.30;77.60;;;;;;5074431;28;20196;-71
2022/12/01 04:30:57;;;;;;;41.58;23.02;;;5.30;77.60;;;;;;5077449;28;20203;-72
2022/12/01 04:33:25;;;;;;;38.85;20.10;;;5.30;77.50;;;;;;5073784;28;20709;-72
2022/12/01 04:35:57;;;;;;;39.05;19.85;;;5.30;77.50;;;;;;5074431;28;20222;-70
2022/12/01 04:38:27;;;;;;;37.08;19.85;;;5.30;77.80;;;;;;5077177;28;20196;-72
2022/12/01 04:40:58;;;;;;;39.00;20.98;;;5.40;77.80;;;;;;5077149;28;20310;-72
2022/12/01 04:43:26;;;;;;;35.47;18.77;;;5.50;77.80;;;;;;5075998;28;20227;-72
2022/12/01 04:45:53;;;;;;;36.35;17.40;;;5.50;77.70;;;;;;5082240;28;20771;-72
2022/12/01 04:48:21;;;;;;;43.92;23.83;;;5.50;77.70;;;;;;5075854;28;20202;-72
2022/12/01 04:50:49;;;;;;;45.58;23.80;;;5.60;77.70;;;;;;5079862;28;20241;-73
2022/12/01 04:53:17;;;;;;;44.85;22.65;;;5.60;77.60;;;;;;5072146;28;20232;-71
2022/12/01 04:55:47;;;;;;;48.47;23.27;;;5.70;77.70;;;;;;5074566;28;20223;-71
2022/12/01 04:58:15;;;;;;;39.08;21.27;;;5.70;77.50;;;;;;5075686;28;20874;-71
2022/12/01 05:00:43;;;;;;;32.80;18.63;;;5.80;77.50;;;;;;5075718;28;20680;-72
2022/12/01 05:03:11;;;;;;;34.97;18.58;;;5.80;77.70;;;;;;5074997;28;20222;-70
2022/12/01 05:05:42;;;;;;;34.25;18.48;;;5.90;77.60;;;;;;5076066;28;20203;-73
2022/12/01 05:08:10;;;;;;;30.98;18.60;;;5.90;77.00;;;;;;5074488;28;20204;-72
2022/12/01 05:10:38;;;;;;;30.88;17.02;;;5.80;77.10;;;;;;5077212;28;20218;-73
2022/12/01 05:13:08;;;;;;;40.10;19.50;;;5.80;77.20;;;;;;5072424;28;20600;-73
2022/12/01 05:15:36;;;;;;;32.97;19.23;;;5.80;77.20;;;;;;5079177;28;20228;-73
2022/12/01 05:18:06;;;;;;;33.08;16.50;;;5.80;77.20;;;;;;5075217;28;20199;-72
2022/12/01 05:23:19;;;;;;;29.95;16.83;;;5.90;77.30;;;;;;5075939;28;20651;-73
2022/12/01 05:25:47;;;;;;;34.47;18.15;;;5.90;77.10;;;;;;5080333;28;20719;-73
2022/12/01 05:28:16;;;;;;;37.05;17.70;;;5.90;77.10;;;;;;5075979;28;20199;-73
2022/12/01 05:30:44;;;;;;;38.05;18.70;;;5.90;77.20;;;;;;5077149;28;20215;-72
2022/12/01 05:33:13;;;;;;;31.23;16.52;;;6.00;77.20;;;;;;5068016;28;20224;-71
2022/12/01 05:35:41;;;;;;;28.63;15.68;;;6.00;77.20;;;;;;5076734;28;20990;-71
2022/12/01 05:38:09;;;;;;;30.85;16.80;;;6.10;77.20;;;;;;5075296;28;20188;-70
2022/12/01 05:40:37;;;;;;;30.40;15.40;;;6.10;77.20;;;;;;5081917;28;20222;-73
2022/12/01 05:43:06;;;;;;;29.90;15.93;;;6.10;77.00;;;;;;5073199;28;20223;-73
2022/12/01 05:45:36;;;;;;;49.63;19.33;;;6.10;77.00;;;;;;5079137;28;20199;-72
2022/12/01 05:48:04;;;;;;;33.33;18.10;;;6.20;77.00;;;;;;5076109;28;20257;-72
2022/12/01 05:50:32;;;;;;;34.85;17.80;;;6.20;77.00;;;;;;5077092;28;20204;-72
2022/12/01 05:53:00;;;;;;;39.40;17.80;;;6.20;76.90;;;;;;5078241;28;20759;-69
2022/12/01 05:55:28;;;;;;;28.75;16.23;;;6.20;76.90;;;;;;5075556;28;20253;-71
2022/12/01 05:57:56;;;;;;;29.05;15.55;;;6.20;76.80;;;;;;5075467;28;20214;-71
2022/12/01 06:00:24;;;;;;;29.52;18.00;;;6.20;76.70;;;;;;5077672;28;21870;-72
2022/12/01 06:02:53;;;;;;;30.58;17.70;;;6.10;76.70;;;;;;5074825;28;20730;-74
2022/12/01 06:05:21;;;;;;;32.28;18.13;;;6.10;76.90;;;;;;5075658;28;20206;-69
2022/12/01 06:07:49;;;;;;;29.30;16.02;;;6.10;76.70;;;;;;5078057;28;20200;-73
2022/12/01 06:10:18;;;;;;;25.98;15.43;;;6.10;76.80;;;;;;5079147;28;20199;-71
2022/12/01 06:12:46;;;;;;;27.48;15.82;;;6.10;76.80;;;;;;5077433;28;20226;-72
2022/12/01 06:15:15;;;;;;;27.88;16.58;;;6.10;76.60;;;;;;5078804;28;20820;-71
2022/12/01 06:17:43;;;;;;;30.60;15.65;;;6.10;76.50;;;;;;5076469;28;20688;-72
2022/12/01 06:20:12;;;;;;;29.13;15.45;;;6.00;76.60;;;;;;5072703;28;20340;-71
2022/12/01 06:22:41;;;;;;;26.38;14.73;;;6.00;76.80;;;;;;5076096;28;20219;-71
2022/12/01 06:25:10;;;;;;;25.70;15.15;;;6.00;76.40;;;;;;5077381;28;20195;-71
2022/12/01 06:27:38;;;;;;;27.60;14.98;;;5.90;76.40;;;;;;5078897;28;20196;-72
2022/12/01 06:30:07;;;;;;;28.20;17.02;;;5.80;76.20;;;;;;5069596;28;20441;-72
2022/12/01 06:32:36;;;;;;;28.75;14.50;;;5.60;76.20;;;;;;5073855;28;20315;-72
2022/12/01 06:35:04;;;;;;;30.15;15.57;;;5.50;76.40;;;;;;5074660;28;20607;-72
2022/12/01 06:37:34;;;;;;;26.60;14.98;;;5.30;76.50;;;;;;5077401;28;20200;-72
2022/12/01 06:40:03;;;;;;;25.88;14.52;;;5.30;76.70;;;;;;5071667;28;20206;-73
2022/12/01 06:42:31;;;;;;;29.42;15.05;;;5.20;76.80;;;;;;5078956;28;20224;-71
2022/12/01 06:44:59;;;;;;;33.88;16.60;;;5.20;77.00;;;;;;5073232;28;20205;-69
2022/12/01 06:47:27;;;;;;;30.23;16.17;;;5.10;77.10;;;;;;5075094;28;20196;-72
2022/12/01 06:49:55;;;;;;;30.05;17.20;;;5.20;77.30;;;;;;5073537;28;20215;-71
2022/12/01 06:52:23;;;;;;;27.63;14.23;;;5.20;77.50;;;;;;5080672;28;20719;-71
2022/12/01 06:54:52;;;;;;;27.88;15.68;;;5.30;77.50;;;;;;5077107;28;20226;-72
2022/12/01 06:57:21;;;;;;;31.25;17.13;;;5.30;77.40;;;;;;5067183;28;20208;-73
2022/12/01 06:59:49;;;;;;;29.92;15.73;;;5.30;77.30;;;;;;5074223;28;20195;-69
2022/12/01 07:02:18;;;;;;;31.55;17.08;;;5.30;77.40;;;;;;5067910;28;20223;-72
2022/12/01 07:04:46;;;;;;;29.58;16.17;;;5.30;77.40;;;;;;5071968;28;20276;-70
2022/12/01 07:07:14;;;;;;;28.23;15.40;;;5.30;77.40;;;;;;5075507;28;20200;-70
2022/12/01 07:09:42;;;;;;;28.83;15.77;;;5.30;77.50;;;;;;5072718;28;20311;-70
2022/12/01 07:12:12;;;;;;;31.55;16.20;;;5.40;77.70;;;;;;5078220;28;20227;-72
2022/12/01 07:14:41;;;;;;;34.50;16.67;;;5.40;77.70;;;;;;5072329;28;20778;-74
2022/12/01 07:17:09;;;;;;;30.15;16.67;;;5.40;77.50;;;;;;5073367;28;20734;-72
2022/12/01 07:19:37;;;;;;;34.30;17.85;;;5.50;77.70;;;;;;5080241;28;20839;-71
2022/12/01 07:22:06;;;;;;;38.42;17.77;;;5.50;77.70;;;;;;5077369;28;20200;-72
2022/12/01 07:24:35;;;;;;;31.73;17.80;;;5.50;77.70;;;;;;5078722;28;20677;-71
2022/12/01 07:27:03;;;;;;;30.27;17.02;;;5.60;77.80;;;;;;5077396;28;20226;-71
2022/12/01 07:29:32;;;;;;;31.90;17.35;;;5.70;77.80;;;;;;5073053;28;20200;-71
2022/12/01 07:32:00;;;;;;;31.27;16.80;;;5.80;77.80;;;;;;5080043;28;20197;-71
2022/12/01 07:34:28;;;;;;;24.98;15.48;;;5.80;77.50;;;;;;5076776;28;20478;-72
2022/12/01 07:36:56;;;;;;;31.02;17.00;;;5.70;77.50;;;;;;5077127;28;20207;-72
2022/12/01 07:39:24;;;;;;;27.40;15.55;;;5.80;77.70;;;;;;5078350;28;20203;-70
2022/12/01 07:41:52;;;;;;;34.50;16.80;;;5.80;77.70;;;;;;5083005;28;20260;-71
2022/12/01 07:44:20;;;;;;;29.48;16.23;;;5.90;77.70;;;;;;5078018;28;20195;-71
2022/12/01 07:46:49;;;;;;;31.02;16.75;;;5.90;77.70;;;;;;5083730;28;20221;-70
2022/12/01 07:49:17;;;;;;;30.77;16.90;;;6.00;77.70;;;;;;5075721;28;20214;-70
2022/12/01 07:51:45;;;;;;;27.95;16.90;;;6.10;77.70;;;;;;5079159;28;20549;-69
2022/12/01 07:54:14;;;;;;;29.77;15.52;;;6.10;77.50;;;;;;5076015;28;20228;-70
2022/12/01 07:56:42;;;;;;;30.98;16.20;;;6.10;77.30;;;;;;5075197;28;20254;-68
2022/12/01 07:59:11;;;;;;;34.08;17.92;;;6.00;77.10;;;;;;5077520;28;20299;-72
2022/12/01 08:01:39;;;;;;;32.65;17.23;;;6.00;77.40;;;;;;5074115;28;20207;-70
2022/12/01 08:04:13;;;;;;;28.00;16.60;;;6.00;77.40;;;;;;5075015;28;20216;-68
2022/12/01 08:06:41;;;;;;;31.27;16.67;;;5.90;77.40;;;;;;5079866;28;20199;-72
2022/12/01 08:09:09;;;;;;;31.98;16.02;;;5.90;77.40;;;;;;5074086;28;20207;-69
2022/12/01 08:11:37;;;;;;;33.92;16.67;;;5.90;77.40;;;;;;5072765;28;20211;-69
2022/12/01 08:14:05;;;;;;;27.30;14.57;;;5.90;77.50;;;;;;5071467;28;20234;-70
2022/12/01 08:16:33;;;;;;;29.45;15.40;;;5.90;77.70;;;;;;5072909;28;20238;-70
2022/12/01 08:19:01;;;;;;;33.75;17.50;;;6.00;77.60;;;;;;5070026;28;20196;-70
2022/12/01 08:21:31;;;;;;;32.25;17.35;;;6.00;77.70;;;;;;5078075;28;20554;-71
2022/12/01 08:23:59;;;;;;;31.10;16.23;;;6.00;77.60;;;;;;5071565;28;20310;-69
2022/12/01 08:26:27;;;;;;;32.00;15.70;;;6.00;77.60;;;;;;5073849;28;20203;-71
2022/12/01 08:28:55;;;;;;;29.58;16.27;;;6.00;77.90;;;;;;5076949;28;20199;-70
2022/12/01 08:31:25;;;;;;;31.98;16.63;;;6.00;77.90;;;;;;5073268;28;20363;-69
2022/12/01 08:33:53;;;;;;;31.98;16.40;;;6.10;77.90;;;;;;5073753;28;20223;-69
2022/12/01 08:36:22;;;;;;;28.80;16.25;;;6.10;78.00;;;;;;5074295;28;20191;-70
2022/12/01 08:38:53;;;;;;;35.95;18.67;;;6.10;77.90;;;;;;5074271;28;20200;-70
2022/12/01 08:41:23;;;;;;;32.88;17.85;;;6.20;77.80;;;;;;5072500;28;20990;-70
2022/12/01 08:43:51;;;;;;;35.70;18.02;;;6.20;77.90;;;;;;5076939;28;20231;-72
2022/12/01 08:46:29;;;;;;;83.78;33.13;;;6.20;77.60;;;;;;5071245;28;20203;-69
2022/12/01 08:48:57;;;;;;;58.15;24.85;;;6.20;77.60;;;;;;5075777;28;21051;-71
2022/12/01 08:51:26;;;;;;;42.25;21.77;;;6.20;77.60;;;;;;5077241;28;20213;-71
2022/12/01 08:53:57;;;;;;;46.15;22.35;;;6.10;77.60;;;;;;5078930;28;20251;-71
2022/12/01 08:56:27;;;;;;;40.33;21.30;;;6.10;77.70;;;;;;5078866;28;20903;-68
2022/12/01 08:58:56;;;;;;;52.35;25.90;;;6.10;77.70;;;;;;5088423;28;20219;-68
2022/12/01 09:01:25;;;;;;;35.65;18.70;;;6.10;77.60;;;;;;5074505;28;20203;-70
2022/12/01 09:04:04;;;;;;;47.33;25.75;;;6.00;77.60;;;;;;5072967;28;20219;-71
2022/12/01 09:06:34;;;;;;;65.00;30.75;;;5.90;77.70;;;;;;5075368;28;20224;-69
2022/12/01 09:09:04;;;;;;;61.78;28.95;;;5.90;77.90;;;;;;5075305;28;20202;-69
2022/12/01 09:11:32;;;;;;;48.65;23.83;;;5.80;77.80;;;;;;5077124;28;20214;-71
2022/12/01 09:14:00;;;;;;;36.47;19.35;;;5.80;77.90;;;;;;5071216;28;20223;-71
2022/12/01 09:16:28;;;;;;;34.40;19.05;;;5.80;78.10;;;;;;5073436;28;20208;-69
2022/12/01 09:18:56;;;;;;;40.20;21.55;;;5.80;78.20;;;;;;5071817;28;20990;-69
2022/12/01 09:21:26;;;;;;;36.88;19.40;;;5.80;78.40;;;;;;5076069;28;20204;-69
2022/12/01 09:23:54;;;;;;;35.17;19.45;;;5.90;78.50;;;;;;5076307;28;20279;-70
2022/12/01 09:26:24;;;;;;;29.02;16.17;;;5.90;78.60;;;;;;5077872;28;20208;-71
2022/12/01 09:28:54;;;;;;;37.63;18.35;;;6.00;78.50;;;;;;5074575;28;20192;-71
2022/12/01 09:31:23;;;;;;;32.63;16.65;;;6.00;78.50;;;;;;5074099;28;20639;-70
2022/12/01 09:33:55;;;;;;;33.67;18.50;;;6.10;78.80;;;;;;5072580;28;20301;-70
2022/12/01 09:36:23;;;;;;;41.28;20.30;;;6.20;78.70;;;;;;5074774;28;20743;-71
2022/12/01 09:38:51;;;;;;;31.70;19.95;;;6.20;78.30;;;;;;5077551;28;20207;-69
2022/12/01 09:41:24;;;;;;;29.15;15.77;;;6.20;78.20;;;;;;5070970;28;20219;-71
2022/12/01 09:43:57;;;;;;;32.25;16.95;;;6.20;78.30;;;;;;5073634;28;20252;-69
2022/12/01 09:46:31;;;;;;;39.38;18.70;;;6.20;78.30;;;;;;5073781;28;20214;-70
2022/12/01 09:49:02;;;;;;;35.03;17.77;;;6.10;78.40;;;;;;5073637;28;20790;-71
2022/12/01 09:51:34;;;;;;;35.85;19.02;;;6.10;78.50;;;;;;5075598;28;20206;-70
2022/12/01 09:54:03;;;;;;;44.00;21.27;;;6.10;78.50;;;;;;5074914;28;20311;-71
2022/12/01 09:56:39;;;;;;;27.38;15.93;;;6.20;78.60;;;;;;5087668;28;20218;-70
2022/12/01 09:59:13;;;;;;;29.05;14.80;;;6.30;78.70;;;;;;5078938;28;20220;-71
2022/12/01 10:01:44;;;;;;;34.67;16.08;;;6.30;78.50;;;;;;5074748;28;20692;-71
2022/12/01 10:04:17;;;;;;;33.95;17.88;;;6.30;78.40;;;;;;5069695;28;20340;-70
2022/12/01 10:06:51;;;;;;;29.25;17.73;;;6.30;78.30;;;;;;5081327;28;20203;-70
2022/12/01 10:09:25;;;;;;;34.10;15.65;;;6.30;78.30;;;;;;5074960;28;20248;-71
2022/12/01 10:11:59;;;;;;;27.95;16.38;;;6.30;78.50;;;;;;5073053;28;20562;-69
2022/12/01 10:14:29;;;;;;;26.25;15.98;;;6.30;78.50;;;;;;5075361;28;20195;-68
2022/12/01 10:17:04;;;;;;;30.13;16.38;;;6.30;78.40;;;;;;5074917;28;20206;-71
2022/12/01 10:19:39;;;;;;;30.75;15.63;;;6.30;78.40;;;;;;5075837;28;20215;-72
2022/12/01 10:22:29;;;;;;;27.60;15.85;;;6.30;78.40;;;;;;5071304;28;20732;-69
2022/12/01 10:25:05;;;;;;;30.80;14.75;;;6.30;78.40;;;;;;5068827;28;20203;-72
2022/12/01 10:27:45;;;;;;;29.13;15.90;;;6.30;78.40;;;;;;5077587;28;20206;-71
2022/12/01 10:30:17;;;;;;;30.75;15.23;;;6.30;78.50;;;;;;5076503;28;20542;-69
2022/12/01 10:32:51;;;;;;;29.67;15.93;;;6.30;78.60;;;;;;5078594;28;20277;-73
2022/12/01 10:35:22;;;;;;;28.55;15.65;;;6.30;78.50;;;;;;5075698;28;20194;-69
2022/12/01 10:37:55;;;;;;;31.40;16.15;;;6.30;78.40;;;;;;5078932;28;20210;-68
2022/12/01 10:40:26;;;;;;;27.10;15.35;;;6.30;78.40;;;;;;5078493;28;20308;-72
2022/12/01 10:42:55;;;;;;;27.95;15.40;;;6.30;78.50;;;;;;5076294;28;20215;-73
2022/12/01 10:45:26;;;;;;;30.27;16.00;;;6.30;78.50;;;;;;5077345;28;20200;-70
2022/12/01 10:48:15;;;;;;;29.05;15.90;;;6.30;78.70;;;;;;5072828;28;20232;-70
2022/12/01 10:50:45;;;;;;;29.25;15.38;;;6.40;78.70;;;;;;5075739;28;20207;-71
2022/12/01 10:53:31;;;;;;;31.15;14.88;;;6.40;78.70;;;;;;5079446;28;20223;-69
2022/12/01 10:56:06;;;;;;;29.90;16.13;;;6.50;78.70;;;;;;5082191;28;20207;-71
2022/12/01 10:58:46;;;;;;;29.92;15.75;;;6.50;78.70;;;;;;5084970;28;20211;-71
2022/12/01 11:01:20;;;;;;;27.38;15.40;;;6.50;78.80;;;;;;5083829;28;20207;-69
2022/12/01 11:03:55;;;;;;;27.83;13.90;;;6.50;78.60;;;;;;5081580;28;20219;-70
2022/12/01 11:06:27;;;;;;;27.63;14.95;;;6.60;78.50;;;;;;5079374;28;20273;-72
2022/12/01 11:08:58;;;;;;;28.35;15.77;;;6.60;78.50;;;;;;5087663;28;20574;-71
2022/12/01 11:11:31;;;;;;;27.05;14.70;;;6.60;78.60;;;;;;5082482;28;20208;-70
2022/12/01 11:14:04;;;;;;;25.17;14.45;;;6.60;78.60;;;;;;5078737;28;20227;-69
2022/12/01 11:16:42;;;;;;;29.80;16.02;;;6.60;78.40;;;;;;5081977;28;20219;-70
2022/12/01 11:19:19;;;;;;;115.40;39.72;;;6.60;78.40;;;;;;5076276;28;20210;-70
2022/12/01 11:21:56;;;;;;;81.55;32.45;;;6.60;78.40;;;;;;5078656;28;20208;-70
2022/12/01 11:24:31;;;;;;;53.83;23.15;;;6.60;78.60;;;;;;5077254;28;20199;-70
2022/12/01 11:26:59;;;;;;;52.60;22.50;;;6.70;78.50;;;;;;5074750;28;20212;-68
2022/12/01 11:29:34;;;;;;;45.15;21.02;;;6.70;78.50;;;;;;5076114;28;20200;-70
2022/12/01 11:32:12;;;;;;;28.52;15.35;;;6.70;78.70;;;;;;5076112;28;20207;-71
2022/12/01 11:34:41;;;;;;;32.42;17.88;;;6.80;78.60;;;;;;5081279;28;20213;-71
2022/12/01 11:37:17;;;;;;;27.90;15.60;;;6.80;78.30;;;;;;5078803;28;20196;-71
2022/12/01 11:39:46;;;;;;;28.73;15.52;;;6.80;78.50;;;;;;5077493;28;20243;-70
2022/12/01 11:42:25;;;;;;;30.48;16.75;;;6.80;78.50;;;;;;5073488;28;20284;-71
2022/12/01 11:45:00;;;;;;;31.35;17.13;;;6.90;78.60;;;;;;5075021;28;20695;-70
2022/12/01 11:47:28;;;;;;;26.40;14.88;;;6.90;78.50;;;;;;5077428;28;20207;-71
2022/12/01 11:49:59;;;;;;;28.23;15.63;;;7.00;78.40;;;;;;5077267;28;20203;-72
2022/12/01 11:52:30;;;;;;;24.52;14.95;;;7.00;78.40;;;;;;5092780;28;20880;-71
2022/12/01 11:55:18;;;;;;;30.45;14.20;;;7.00;78.30;;;;;;5081520;28;20665;-69
2022/12/01 11:57:49;;;;;;;25.90;14.07;;;7.00;78.20;;;;;;5082356;28;20211;-71
2022/12/01 12:00:21;;;;;;;25.25;14.45;;;7.00;78.30;;;;;;5076283;28;20211;-71
2022/12/01 12:03:10;;;;;;;24.13;13.55;;;7.00;78.30;;;;;;5079072;28;20215;-70
2022/12/01 12:06:06;;;;;;;28.10;13.57;;;7.00;78.20;;;;;;5067189;28;20302;-68
2022/12/01 12:09:11;;;;;;;28.77;13.63;;;7.10;78.20;;;;;;5077526;28;20266;-71
2022/12/01 12:11:48;;;;;;;22.85;14.32;;;7.10;78.50;;;;;;5081721;28;20195;-69
2022/12/01 12:14:34;;;;;;;26.73;14.35;;;7.20;78.50;;;;;;5076197;28;20233;-71
2022/12/01 12:17:26;;;;;;;24.70;14.15;;;7.30;78.40;;;;;;5078242;28;20203;-71
2022/12/01 12:20:16;;;;;;;26.60;14.02;;;7.30;78.20;;;;;;5073309;28;20316;-69
2022/12/01 12:22:55;;;;;;;29.05;16.35;;;7.30;78.00;;;;;;5075861;28;20638;-70
2022/12/01 12:25:31;;;;;;;35.15;19.17;;;7.20;77.70;;;;;;5076683;28;20203;-71
2022/12/01 12:28:19;;;;;;;27.40;15.32;;;7.20;77.90;;;;;;5076247;28;20203;-71
2022/12/01 12:30:56;;;;;;;27.15;14.63;;;7.30;78.20;;;;;;5075551;28;20671;-71
2022/12/01 12:33:43;;;;;;;24.17;14.20;;;7.30;78.20;;;;;;5065898;28;20235;-71
2022/12/01 12:36:25;;;;;;;31.25;15.15;;;7.30;78.00;;;;;;5076029;28;20204;-69
2022/12/01 12:39:04;;;;;;;28.25;16.55;;;7.30;78.00;;;;;;5073683;28;20218;-70
2022/12/01 12:41:36;;;;;;;25.05;14.65;;;7.30;78.20;;;;;;5075906;28;20204;-69
2022/12/01 12:44:25;;;;;;;23.30;13.65;;;7.30;78.20;;;;;;5075577;28;20945;-67
2022/12/01 12:47:02;;;;;;;24.77;15.25;;;7.40;78.00;;;;;;5074978;28;20195;-69
2022/12/01 12:49:42;;;;;;;24.67;13.90;;;7.40;78.20;;;;;;5078467;28;20206;-70
2022/12/01 12:52:15;;;;;;;27.27;14.43;;;7.40;78.00;;;;;;5074445;28;20699;-67
2022/12/01 12:54:49;;;;;;;26.05;12.88;;;7.40;77.90;;;;;;5080726;28;21633;-68
2022/12/01 12:57:26;;;;;;;25.73;14.25;;;7.40;77.90;;;;;;5075554;28;20270;-69
2022/12/01 12:59:59;;;;;;;25.25;13.38;;;7.40;77.80;;;;;;5075486;28;20230;-69
2022/12/01 13:02:36;;;;;;;27.15;15.10;;;7.40;78.00;;;;;;5071165;28;20890;-69
2022/12/01 13:05:14;;;;;;;23.00;12.90;;;7.40;77.90;;;;;;5075936;28;20366;-70